sensor_id;sensor_type;location;lat;lon;timestamp;pressure;altitude;pressure_sealevel;temperature;humidity
57668;BME280;43499;52.366;12.912;2023-12-20T00:03:04;100646.16;;;7.10;100.00
57668;BME280;43499;52.366;12.912;2023-12-20T00:04:27;100576.81;;;6.67;100.00
57668;BME280;43499;52.366;12.912;2023-12-20T00:06:43;100641.88;;;7.11;100.00
57668;BME280;43499;52.366;12.912;2023-12-20T00:08:39;100629.94;;;7.04;100.00
57668;BME280;43499;52.366;12.912;2023-12-20T00:16:27;100625.16;;;7.28;100.00
57668;BME280;43499;52.366;12.912;2023-12-20T00:18:55;100623.84;;;7.14;100.00
57668;BME280;43499;52.366;12.912;2023-12-20T00:21:08;100536.88;;;6.68;100.00
57668;BME280;43499;52.366;12.912;2023-12-20T00:25:32;100620.81;;;7.09;100.00
57668;BME280;43499;52.366;12.912;2023-12-20T00:31:19;100541.97;;;6.86;100.00
57668;BME280;43499;52.366;12.912;2023-12-20T00:32:44;100530.44;;;6.64;100.00
57668;BME280;43499;52.366;12.912;2023-12-20T00:34:07;100604.22;;;7.09;100.00
57668;BME280;43499;52.366;12.912;2023-12-20T00:37:21;100604.22;;;7.09;100.00
57668;BME280;43499;52.366;12.912;2023-12-20T00:39:09;100604.22;;;7.09;100.00
57668;BME280;43499;52.366;12.912;2023-12-20T00:43:08;100604.22;;;7.09;100.00
57668;BME280;43499;52.366;12.912;2023-12-20T00:44:38;100591.56;;;6.94;100.00
57668;BME280;43499;52.366;12.912;2023-12-20T00:46:53;100605.44;;;7.32;100.00
57668;BME280;43499;52.366;12.912;2023-12-20T00:48:58;100605.44;;;7.32;100.00
57668;BME280;43499;52.366;12.912;2023-12-20T00:52:54;54511.34;;;-146.75;100.00
57668;BME280;43499;52.366;12.912;2023-12-20T00:55:00;54511.34;;;-146.75;100.00
57668;BME280;43499;52.366;12.912;2023-12-20T01:02:21;54511.34;;;-146.75;100.00
57668;BME280;43499;52.366;12.912;2023-12-20T01:03:44;54511.34;;;-146.75;100.00
57668;BME280;43499;52.366;12.912;2023-12-20T01:05:08;54511.34;;;-146.75;100.00
57668;BME280;43499;52.366;12.912;2023-12-20T01:06:38;54511.34;;;-146.75;100.00
57668;BME280;43499;52.366;12.912;2023-12-20T01:14:51;100604.78;;;7.34;100.00
57668;BME280;43499;52.366;12.912;2023-12-20T01:16:16;100539.41;;;6.96;100.00
57668;BME280;43499;52.366;12.912;2023-12-20T01:23:04;100535.19;;;7.07;100.00
57668;BME280;43499;52.366;12.912;2023-12-20T01:24:24;100623.03;;;7.43;100.00
57668;BME280;43499;52.366;12.912;2023-12-20T01:30:40;100612.84;;;7.46;100.00
57668;BME280;43499;52.366;12.912;2023-12-20T01:32:35;100605.66;;;7.24;100.00
57668;BME280;43499;52.366;12.912;2023-12-20T01:34:05;100547.78;;;6.92;100.00
57668;BME280;43499;52.366;12.912;2023-12-20T01:35:57;100573.56;;;7.17;100.00
57668;BME280;43499;52.366;12.912;2023-12-20T01:37:34;100543.88;;;6.97;100.00
57668;BME280;43499;52.366;12.912;2023-12-20T01:43:25;100574.47;;;7.17;100.00
57668;BME280;43499;52.366;12.912;2023-12-20T01:47:16;100571.19;;;7.39;100.00
57668;BME280;43499;52.366;12.912;2023-12-20T01:48:57;100612.75;;;7.55;100.00
57668;BME280;43499;52.366;12.912;2023-12-20T01:51:18;100612.63;;;7.53;100.00
57668;BME280;43499;52.366;12.912;2023-12-20T01:53:24;100579.97;;;7.39;100.00
57668;BME280;43499;52.366;12.912;2023-12-20T01:55:20;100605.44;;;7.80;100.00
57668;BME280;43499;52.366;12.912;2023-12-20T01:59:09;100511.94;;;7.29;100.00
57668;BME280;43499;52.366;12.912;2023-12-20T02:01:04;100500.00;;;7.22;100.00
57668;BME280;43499;52.366;12.912;2023-12-20T02:02:48;100568.38;;;7.46;100.00
57668;BME280;43499;52.366;12.912;2023-12-20T02:04:44;100497.75;;;7.17;100.00
57668;BME280;43499;52.366;12.912;2023-12-20T02:08:49;100593.72;;;7.66;100.00
57668;BME280;43499;52.366;12.912;2023-12-20T02:10:24;100589.84;;;7.52;100.00
57668;BME280;43499;52.366;12.912;2023-12-20T02:12:16;100602.28;;;7.55;100.00
57668;BME280;43499;52.366;12.912;2023-12-20T02:13:56;100593.59;;;7.65;100.00
57668;BME280;43499;52.366;12.912;2023-12-20T02:17:53;100496.22;;;7.00;100.00
57668;BME280;43499;52.366;12.912;2023-12-20T02:19:14;100509.41;;;7.20;100.00
57668;BME280;43499;52.366;12.912;2023-12-20T02:21:43;100532.38;;;7.44;100.00
57668;BME280;43499;52.366;12.912;2023-12-20T02:23:51;100527.41;;;7.36;100.00
57668;BME280;43499;52.366;12.912;2023-12-20T02:34:11;100585.97;;;7.57;100.00
57668;BME280;43499;52.366;12.912;2023-12-20T02:35:46;100527.13;;;7.14;100.00
57668;BME280;43499;52.366;12.912;2023-12-20T02:37:29;100566.50;;;7.35;100.00
57668;BME280;43499;52.366;12.912;2023-12-20T02:39:21;100580.41;;;7.44;100.00
57668;BME280;43499;52.366;12.912;2023-12-20T02:41:24;100582.28;;;7.55;100.00
57668;BME280;43499;52.366;12.912;2023-12-20T02:44:01;100552.53;;;7.45;100.00
57668;BME280;43499;52.366;12.912;2023-12-20T02:45:57;100513.44;;;7.17;100.00
57668;BME280;43499;52.366;12.912;2023-12-20T02:47:27;100547.94;;;7.42;100.00
57668;BME280;43499;52.366;12.912;2023-12-20T02:48:49;100584.31;;;7.68;100.00
57668;BME280;43499;52.366;12.912;2023-12-20T02:53:09;100486.81;;;7.02;100.00
57668;BME280;43499;52.366;12.912;2023-12-20T02:56:44;100503.81;;;7.26;100.00
57668;BME280;43499;52.366;12.912;2023-12-20T03:00:51;100544.97;;;7.48;100.00
57668;BME280;43499;52.366;12.912;2023-12-20T03:03:37;100598.31;;;7.69;100.00
57668;BME280;43499;52.366;12.912;2023-12-20T03:10:32;100543.25;;;7.48;100.00
57668;BME280;43499;52.366;12.912;2023-12-20T03:12:20;100523.88;;;7.36;100.00
57668;BME280;43499;52.366;12.912;2023-12-20T03:16:13;100516.53;;;7.13;100.00
57668;BME280;43499;52.366;12.912;2023-12-20T03:18:04;100578.69;;;7.45;100.00
57668;BME280;43499;52.366;12.912;2023-12-20T03:24:02;100590.44;;;7.59;100.00
57668;BME280;43499;52.366;12.912;2023-12-20T03:26:16;100524.44;;;7.23;100.00
57668;BME280;43499;52.366;12.912;2023-12-20T03:29:41;100529.38;;;7.20;100.00
57668;BME280;43499;52.366;12.912;2023-12-20T03:37:34;100534.53;;;7.29;100.00
57668;BME280;43499;52.366;12.912;2023-12-20T03:39:21;100516.06;;;7.17;100.00
57668;BME280;43499;52.366;12.912;2023-12-20T03:43:22;100555.16;;;7.25;99.62
57668;BME280;43499;52.366;12.912;2023-12-20T03:44:57;100605.66;;;7.54;98.91
57668;BME280;43499;52.366;12.912;2023-12-20T03:46:21;100500.03;;;7.03;97.90
57668;BME280;43499;52.366;12.912;2023-12-20T03:48:32;100506.16;;;7.23;97.23
57668;BME280;43499;52.366;12.912;2023-12-20T03:52:36;100588.84;;;7.61;97.72
57668;BME280;43499;52.366;12.912;2023-12-20T03:54:43;100496.84;;;6.97;97.93
57668;BME280;43499;52.366;12.912;2023-12-20T03:56:46;100503.59;;;7.14;97.81
57668;BME280;43499;52.366;12.912;2023-12-20T03:59:05;100507.44;;;7.18;97.90
57668;BME280;43499;52.366;12.912;2023-12-20T04:00:50;100496.63;;;7.04;97.79
57668;BME280;43499;52.366;12.912;2023-12-20T04:06:25;100587.09;;;7.51;98.31
57668;BME280;43499;52.366;12.912;2023-12-20T04:09:04;100496.66;;;6.85;99.10
57668;BME280;43499;52.366;12.912;2023-12-20T04:11:29;100588.44;;;7.37;98.89
57668;BME280;43499;52.366;12.912;2023-12-20T04:12:53;100486.13;;;6.75;98.40
57668;BME280;43499;52.366;12.912;2023-12-20T04:14:52;100587.59;;;7.28;97.71
57668;BME280;43499;52.366;12.912;2023-12-20T04:18:21;100478.84;;;6.62;97.24
57668;BME280;43499;52.366;12.912;2023-12-20T04:23:40;100493.03;;;6.74;97.00
57668;BME280;43499;52.366;12.912;2023-12-20T04:27:53;100552.84;;;7.09;96.99
57668;BME280;43499;52.366;12.912;2023-12-20T04:29:29;100530.09;;;6.70;98.21
57668;BME280;43499;52.366;12.912;2023-12-20T04:31:50;100488.25;;;6.32;99.40
57668;BME280;43499;52.366;12.912;2023-12-20T04:33:47;100591.59;;;6.86;99.37
57668;BME280;43499;52.366;12.912;2023-12-20T04:35:05;100589.19;;;6.78;99.65
57668;BME280;43499;52.366;12.912;2023-12-20T04:40:20;100483.50;;;6.09;99.83
57668;BME280;43499;52.366;12.912;2023-12-20T04:41:40;100537.38;;;6.36;99.27
57668;BME280;43499;52.366;12.912;2023-12-20T04:42:57;100493.72;;;6.16;99.02
57668;BME280;43499;52.366;12.912;2023-12-20T04:44:26;100523.16;;;6.24;98.33
57668;BME280;43499;52.366;12.912;2023-12-20T04:47:57;100473.44;;;5.85;98.24
57668;BME280;43499;52.366;12.912;2023-12-20T04:55:11;100506.38;;;6.02;99.12
57668;BME280;43499;52.366;12.912;2023-12-20T04:56:37;100574.16;;;6.48;98.72
57668;BME280;43499;52.366;12.912;2023-12-20T04:58:20;100498.06;;;5.98;98.41
57668;BME280;43499;52.366;12.912;2023-12-20T04:59:31;100513.88;;;6.08;98.92
57668;BME280;43499;52.366;12.912;2023-12-20T05:00:35;100589.03;;;6.58;98.50
57668;BME280;43499;52.366;12.912;2023-12-20T05:01:39;100523.50;;;6.18;98.52
57668;BME280;43499;52.366;12.912;2023-12-20T05:03:04;100511.56;;;6.11;98.34
57668;BME280;43499;52.366;12.912;2023-12-20T05:04:07;100514.31;;;6.13;98.76
57668;BME280;43499;52.366;12.912;2023-12-20T05:05:47;100589.94;;;6.58;98.78
57668;BME280;43499;52.366;12.912;2023-12-20T05:07:06;100597.38;;;6.45;98.48
57668;BME280;43499;52.366;12.912;2023-12-20T05:08:10;100528.63;;;5.99;99.29
57668;BME280;43499;52.366;12.912;2023-12-20T05:09:19;100493.38;;;5.85;99.41
57668;BME280;43499;52.366;12.912;2023-12-20T05:10:20;100528.03;;;6.01;100.00
57668;BME280;43499;52.366;12.912;2023-12-20T05:11:29;100571.56;;;6.20;99.78
57668;BME280;43499;52.366;12.912;2023-12-20T05:12:30;100509.47;;;5.90;100.00
57668;BME280;43499;52.366;12.912;2023-12-20T05:14:03;100524.31;;;6.08;99.24
57668;BME280;43499;52.366;12.912;2023-12-20T05:15:13;100538.41;;;6.19;98.98
57668;BME280;43499;52.366;12.912;2023-12-20T05:17:06;100535.28;;;6.23;98.80
57668;BME280;43499;52.366;12.912;2023-12-20T05:18:36;100574.25;;;6.58;98.68
57668;BME280;43499;52.366;12.912;2023-12-20T05:19:50;100471.69;;;6.04;98.21
57668;BME280;43499;52.366;12.912;2023-12-20T05:20:51;100555.47;;;6.43;98.02
57668;BME280;43499;52.366;12.912;2023-12-20T05:22:01;100482.00;;;6.02;97.97
57668;BME280;43499;52.366;12.912;2023-12-20T05:23:03;100512.97;;;6.08;98.04
57668;BME280;43499;52.366;12.912;2023-12-20T05:24:15;100520.78;;;6.08;98.50
57668;BME280;43499;52.366;12.912;2023-12-20T05:27:12;100505.59;;;6.04;98.77
57668;BME280;43499;52.366;12.912;2023-12-20T05:28:46;100546.63;;;6.32;98.56
57668;BME280;43499;52.366;12.912;2023-12-20T05:29:50;100574.16;;;6.48;98.19
57668;BME280;43499;52.366;12.912;2023-12-20T05:30:57;100540.69;;;6.16;98.39
57668;BME280;43499;52.366;12.912;2023-12-20T05:32:01;100536.38;;;6.16;98.62
57668;BME280;43499;52.366;12.912;2023-12-20T05:33:22;100480.47;;;5.86;98.76
57668;BME280;43499;52.366;12.912;2023-12-20T05:34:40;100519.13;;;5.99;98.27
57668;BME280;43499;52.366;12.912;2023-12-20T05:35:44;100523.06;;;6.13;98.03
57668;BME280;43499;52.366;12.912;2023-12-20T05:36:56;100593.50;;;6.50;97.48
57668;BME280;43499;52.366;12.912;2023-12-20T05:38:12;100502.53;;;6.08;98.17
57668;BME280;43499;52.366;12.912;2023-12-20T05:39:25;100495.16;;;5.95;97.91
57668;BME280;43499;52.366;12.912;2023-12-20T05:40:26;100527.13;;;6.01;97.87
57668;BME280;43499;52.366;12.912;2023-12-20T05:41:30;100550.19;;;6.15;97.99
57668;BME280;43499;52.366;12.912;2023-12-20T05:42:32;100485.91;;;5.70;98.45
57668;BME280;43499;52.366;12.912;2023-12-20T05:43:38;100496.50;;;5.72;98.82
57668;BME280;43499;52.366;12.912;2023-12-20T05:44:55;100464.22;;;5.44;99.17
57668;BME280;43499;52.366;12.912;2023-12-20T05:45:59;100531.56;;;5.84;99.91
57668;BME280;43499;52.366;12.912;2023-12-20T05:47:26;100573.91;;;5.99;99.84
57668;BME280;43499;52.366;12.912;2023-12-20T05:48:33;100486.13;;;5.54;99.45
57668;BME280;43499;52.366;12.912;2023-12-20T05:49:42;100452.88;;;5.43;99.18
57668;BME280;43499;52.366;12.912;2023-12-20T05:50:55;100503.25;;;5.70;99.09
57668;BME280;43499;52.366;12.912;2023-12-20T05:52:00;100528.66;;;5.81;99.15
57668;BME280;43499;52.366;12.912;2023-12-20T05:53:17;100454.94;;;5.19;99.81
57668;BME280;43499;52.366;12.912;2023-12-20T05:54:26;100475.59;;;5.44;100.00
57668;BME280;43499;52.366;12.912;2023-12-20T05:55:39;100527.47;;;5.78;99.57
57668;BME280;43499;52.366;12.912;2023-12-20T05:56:41;100464.72;;;5.39;99.36
57668;BME280;43499;52.366;12.912;2023-12-20T05:57:48;100496.88;;;5.49;99.13
57668;BME280;43499;52.366;12.912;2023-12-20T05:59:02;100445.91;;;5.07;100.00
57668;BME280;43499;52.366;12.912;2023-12-20T06:00:16;100491.09;;;5.25;100.00
57668;BME280;43499;52.366;12.912;2023-12-20T06:01:25;100496.00;;;5.31;99.86
57668;BME280;43499;52.366;12.912;2023-12-20T06:02:29;100457.88;;;5.14;99.84
57668;BME280;43499;52.366;12.912;2023-12-20T06:03:31;100487.56;;;5.24;99.59
57668;BME280;43499;52.366;12.912;2023-12-20T06:04:48;100507.94;;;5.29;99.98
57668;BME280;43499;52.366;12.912;2023-12-20T06:05:49;100502.75;;;5.29;100.00
57668;BME280;43499;52.366;12.912;2023-12-20T06:06:53;100524.16;;;5.44;100.00
57668;BME280;43499;52.366;12.912;2023-12-20T06:08:05;100486.69;;;4.98;100.00
57668;BME280;43499;52.366;12.912;2023-12-20T06:09:36;100529.88;;;5.39;100.00
57668;BME280;43499;52.366;12.912;2023-12-20T06:10:38;100519.91;;;5.35;100.00
57668;BME280;43499;52.366;12.912;2023-12-20T06:11:42;100532.03;;;5.26;100.00
57668;BME280;43499;52.366;12.912;2023-12-20T06:13:26;100462.94;;;4.94;100.00
57668;BME280;43499;52.366;12.912;2023-12-20T06:14:54;100489.13;;;5.05;100.00
57668;BME280;43499;52.366;12.912;2023-12-20T06:15:59;100456.50;;;4.82;100.00
57668;BME280;43499;52.366;12.912;2023-12-20T06:17:00;100534.94;;;5.29;100.00
57668;BME280;43499;52.366;12.912;2023-12-20T06:18:11;100462.00;;;5.03;100.00
57668;BME280;43499;52.366;12.912;2023-12-20T06:19:15;100508.28;;;5.23;100.00
57668;BME280;43499;52.366;12.912;2023-12-20T06:20:51;100487.16;;;5.11;100.00
57668;BME280;43499;52.366;12.912;2023-12-20T06:22:04;100449.75;;;5.02;100.00
57668;BME280;43499;52.366;12.912;2023-12-20T06:23:05;100533.25;;;5.30;100.00
57668;BME280;43499;52.366;12.912;2023-12-20T06:24:23;100509.47;;;5.27;100.00
57668;BME280;43499;52.366;12.912;2023-12-20T06:25:37;100449.09;;;5.13;100.00
57668;BME280;43499;52.366;12.912;2023-12-20T06:26:38;100481.75;;;5.09;100.00
57668;BME280;43499;52.366;12.912;2023-12-20T06:27:49;100549.91;;;5.49;100.00
57668;BME280;43499;52.366;12.912;2023-12-20T06:29:16;100489.44;;;5.08;100.00
57668;BME280;43499;52.366;12.912;2023-12-20T06:30:30;100468.75;;;5.09;100.00
57668;BME280;43499;52.366;12.912;2023-12-20T06:32:00;100503.81;;;5.39;100.00
57668;BME280;43499;52.366;12.912;2023-12-20T06:33:27;100497.84;;;5.32;100.00
57668;BME280;43499;52.366;12.912;2023-12-20T06:34:38;100536.00;;;5.40;100.00
57668;BME280;43499;52.366;12.912;2023-12-20T06:35:39;100517.78;;;5.22;100.00
57668;BME280;43499;52.366;12.912;2023-12-20T06:36:40;100483.91;;;5.14;100.00
57668;BME280;43499;52.366;12.912;2023-12-20T06:37:50;100477.19;;;5.16;100.00
57668;BME280;43499;52.366;12.912;2023-12-20T06:39:00;100574.25;;;5.76;100.00
57668;BME280;43499;52.366;12.912;2023-12-20T06:40:02;100482.22;;;5.14;100.00
57668;BME280;43499;52.366;12.912;2023-12-20T06:41:12;100567.34;;;5.77;99.88
57668;BME280;43499;52.366;12.912;2023-12-20T06:42:23;100484.81;;;5.14;100.00
57668;BME280;43499;52.366;12.912;2023-12-20T06:43:35;100481.13;;;5.21;99.94
57668;BME280;43499;52.366;12.912;2023-12-20T06:44:41;100475.66;;;5.00;100.00
57668;BME280;43499;52.366;12.912;2023-12-20T06:45:53;100478.72;;;5.05;100.00
57668;BME280;43499;52.366;12.912;2023-12-20T06:46:54;100522.81;;;5.21;100.00
57668;BME280;43499;52.366;12.912;2023-12-20T06:47:58;100449.91;;;4.86;100.00
57668;BME280;43499;52.366;12.912;2023-12-20T06:48:59;100494.94;;;5.20;100.00
57668;BME280;43499;52.366;12.912;2023-12-20T06:50:23;100494.94;;;5.29;99.73
57668;BME280;43499;52.366;12.912;2023-12-20T06:51:41;100503.50;;;5.36;99.43
57668;BME280;43499;52.366;12.912;2023-12-20T06:53:02;100479.59;;;5.32;99.14
57668;BME280;43499;52.366;12.912;2023-12-20T06:54:42;100504.13;;;5.34;99.18
57668;BME280;43499;52.366;12.912;2023-12-20T06:55:46;100492.31;;;5.20;99.06
57668;BME280;43499;52.366;12.912;2023-12-20T06:56:47;100495.88;;;5.20;99.78
57668;BME280;43499;52.366;12.912;2023-12-20T06:57:48;100475.03;;;5.20;99.75
57668;BME280;43499;52.366;12.912;2023-12-20T06:58:50;100498.28;;;5.36;99.11
57668;BME280;43499;52.366;12.912;2023-12-20T07:00:42;100459.84;;;5.16;98.74
57668;BME280;43499;52.366;12.912;2023-12-20T07:01:52;100440.06;;;5.09;99.07
57668;BME280;43499;52.366;12.912;2023-12-20T07:03:14;100473.00;;;5.27;98.48
57668;BME280;43499;52.366;12.912;2023-12-20T07:04:28;100479.41;;;5.30;98.66
57668;BME280;43499;52.366;12.912;2023-12-20T07:05:30;100479.47;;;5.21;98.73
57668;BME280;43499;52.366;12.912;2023-12-20T07:06:31;100524.94;;;5.43;99.08
57668;BME280;43499;52.366;12.912;2023-12-20T07:07:32;100479.34;;;5.11;99.11
57668;BME280;43499;52.366;12.912;2023-12-20T07:08:33;100473.81;;;5.17;98.79
57668;BME280;43499;52.366;12.912;2023-12-20T07:09:43;100467.03;;;5.19;98.74
57668;BME280;43499;52.366;12.912;2023-12-20T07:10:56;100532.88;;;5.53;98.37
57668;BME280;43499;52.366;12.912;2023-12-20T07:12:27;100458.13;;;5.34;98.05
57668;BME280;43499;52.366;12.912;2023-12-20T07:13:31;100466.88;;;5.26;97.87
57668;BME280;43499;52.366;12.912;2023-12-20T07:15:00;100460.59;;;5.33;98.14
57668;BME280;43499;52.366;12.912;2023-12-20T07:16:02;100474.53;;;5.33;97.67
57668;BME280;43499;52.366;12.912;2023-12-20T07:17:06;100484.91;;;5.51;97.40
57668;BME280;43499;52.366;12.912;2023-12-20T07:18:15;100479.28;;;5.20;97.74
57668;BME280;43499;52.366;12.912;2023-12-20T07:19:25;100524.91;;;5.60;98.04
57668;BME280;43499;52.366;12.912;2023-12-20T07:20:33;100546.53;;;5.59;97.70
57668;BME280;43499;52.366;12.912;2023-12-20T07:21:52;100467.78;;;5.18;97.69
57668;BME280;43499;52.366;12.912;2023-12-20T07:22:57;100541.91;;;5.65;97.87
57668;BME280;43499;52.366;12.912;2023-12-20T07:23:58;100457.56;;;5.10;97.62
57668;BME280;43499;52.366;12.912;2023-12-20T07:25:04;100505.03;;;5.34;97.81
57668;BME280;43499;52.366;12.912;2023-12-20T07:27:28;100494.59;;;5.34;98.09
57668;BME280;43499;52.366;12.912;2023-12-20T07:28:36;100508.41;;;5.42;98.21
57668;BME280;43499;52.366;12.912;2023-12-20T07:29:37;100449.41;;;5.34;97.74
57668;BME280;43499;52.366;12.912;2023-12-20T07:30:40;100472.34;;;5.38;97.28
57668;BME280;43499;52.366;12.912;2023-12-20T07:32:16;100437.59;;;5.20;96.74
57668;BME280;43499;52.366;12.912;2023-12-20T07:33:27;100511.13;;;5.52;97.26
57668;BME280;43499;52.366;12.912;2023-12-20T07:34:33;100504.38;;;5.54;97.98
57668;BME280;43499;52.366;12.912;2023-12-20T07:35:34;100461.53;;;5.16;97.84
57668;BME280;43499;52.366;12.912;2023-12-20T07:36:38;100498.09;;;5.44;97.61
57668;BME280;43499;52.366;12.912;2023-12-20T07:37:47;100473.13;;;5.37;97.10
57668;BME280;43499;52.366;12.912;2023-12-20T07:38:54;100448.78;;;5.28;96.86
57668;BME280;43499;52.366;12.912;2023-12-20T07:39:55;100535.88;;;5.84;96.29
57668;BME280;43499;52.366;12.912;2023-12-20T07:40:58;100447.56;;;5.15;96.43
57668;BME280;43499;52.366;12.912;2023-12-20T07:42:14;100450.81;;;5.21;96.03
57668;BME280;43499;52.366;12.912;2023-12-20T07:43:18;100456.88;;;5.39;95.96
57668;BME280;43499;52.366;12.912;2023-12-20T07:44:22;100459.63;;;5.41;95.42
57668;BME280;43499;52.366;12.912;2023-12-20T07:45:27;100417.19;;;5.24;95.20
57668;BME280;43499;52.366;12.912;2023-12-20T07:46:37;100452.38;;;5.47;94.70
57668;BME280;43499;52.366;12.912;2023-12-20T07:47:42;100449.50;;;5.44;94.95
57668;BME280;43499;52.366;12.912;2023-12-20T07:48:44;100424.91;;;5.14;95.20
57668;BME280;43499;52.366;12.912;2023-12-20T07:50:13;100478.97;;;5.43;95.29
57668;BME280;43499;52.366;12.912;2023-12-20T07:51:45;100458.09;;;5.52;94.75
57668;BME280;43499;52.366;12.912;2023-12-20T07:52:49;100453.00;;;5.53;94.25
57668;BME280;43499;52.366;12.912;2023-12-20T07:53:54;100511.47;;;5.83;94.23
57668;BME280;43499;52.366;12.912;2023-12-20T07:55:30;100468.88;;;5.74;93.82
57668;BME280;43499;52.366;12.912;2023-12-20T07:56:41;100452.03;;;5.70;93.23
57668;BME280;43499;52.366;12.912;2023-12-20T07:57:55;100439.28;;;5.74;92.65
57668;BME280;43499;52.366;12.912;2023-12-20T07:59:24;100534.00;;;6.00;93.43
57668;BME280;43499;52.366;12.912;2023-12-20T08:00:28;100473.84;;;5.62;93.79
57668;BME280;43499;52.366;12.912;2023-12-20T08:01:35;100478.41;;;5.74;94.33
57668;BME280;43499;52.366;12.912;2023-12-20T08:02:48;100417.19;;;5.33;93.85
57668;BME280;43499;52.366;12.912;2023-12-20T08:03:59;100503.91;;;6.04;93.80
57668;BME280;43499;52.366;12.912;2023-12-20T08:06:00;100522.66;;;5.91;93.84
57668;BME280;43499;52.366;12.912;2023-12-20T08:08:40;100532.91;;;5.98;93.82
57668;BME280;43499;52.366;12.912;2023-12-20T08:09:48;100514.34;;;6.04;93.55
57668;BME280;43499;52.366;12.912;2023-12-20T08:11:04;100472.31;;;6.01;92.16
57668;BME280;43499;52.366;12.912;2023-12-20T08:12:08;100528.84;;;6.20;92.60
57668;BME280;43499;52.366;12.912;2023-12-20T08:15:30;100445.75;;;5.96;91.16
57668;BME280;43499;52.366;12.912;2023-12-20T08:16:32;100464.97;;;5.88;91.12
57668;BME280;43499;52.366;12.912;2023-12-20T08:17:35;100545.31;;;6.46;90.60
57668;BME280;43499;52.366;12.912;2023-12-20T08:18:37;100488.13;;;6.02;91.78
57668;BME280;43499;52.366;12.912;2023-12-20T08:20:10;100435.16;;;5.67;91.88
57668;BME280;43499;52.366;12.912;2023-12-20T08:21:23;100537.22;;;6.35;92.42
57668;BME280;43499;52.366;12.912;2023-12-20T08:22:24;100521.56;;;6.07;93.35
57668;BME280;43499;52.366;12.912;2023-12-20T08:23:34;100446.16;;;5.73;93.21
57668;BME280;43499;52.366;12.912;2023-12-20T08:25:00;100473.22;;;6.01;92.76
57668;BME280;43499;52.366;12.912;2023-12-20T08:26:12;100468.88;;;6.11;93.18
57668;BME280;43499;52.366;12.912;2023-12-20T08:27:20;100418.66;;;5.85;92.85
57668;BME280;43499;52.366;12.912;2023-12-20T08:28:38;100476.16;;;6.32;92.96
57668;BME280;43499;52.366;12.912;2023-12-20T08:29:44;100448.41;;;5.87;92.99
57668;BME280;43499;52.366;12.912;2023-12-20T08:30:56;100456.19;;;5.96;92.85
57668;BME280;43499;52.366;12.912;2023-12-20T08:31:59;100492.78;;;6.15;92.58
57668;BME280;43499;52.366;12.912;2023-12-20T08:33:04;100423.53;;;5.91;92.76
57668;BME280;43499;52.366;12.912;2023-12-20T08:34:08;100441.09;;;6.11;92.10
57668;BME280;43499;52.366;12.912;2023-12-20T08:35:09;100434.69;;;6.08;92.09
57668;BME280;43499;52.366;12.912;2023-12-20T08:36:31;100464.72;;;6.41;91.08
57668;BME280;43499;52.366;12.912;2023-12-20T08:37:37;100489.44;;;6.63;90.94
57668;BME280;43499;52.366;12.912;2023-12-20T08:38:42;100500.88;;;6.74;89.67
57668;BME280;43499;52.366;12.912;2023-12-20T08:39:51;100464.16;;;6.54;90.67
57668;BME280;43499;52.366;12.912;2023-12-20T08:41:02;100459.00;;;6.64;89.73
57668;BME280;43499;52.366;12.912;2023-12-20T08:42:17;100415.13;;;6.41;88.93
57668;BME280;43499;52.366;12.912;2023-12-20T08:43:40;100412.25;;;6.29;89.00
57668;BME280;43499;52.366;12.912;2023-12-20T08:46:59;100443.38;;;6.17;89.35
57668;BME280;43499;52.366;12.912;2023-12-20T08:53:54;100443.63;;;6.67;87.50
57668;BME280;43499;52.366;12.912;2023-12-20T08:57:51;100466.00;;;7.92;84.06
57668;BME280;43499;52.366;12.912;2023-12-20T09:01:31;100401.97;;;7.67;81.03
57668;BME280;43499;52.366;12.912;2023-12-20T09:05:20;100399.13;;;7.95;80.52
57668;BME280;43499;52.366;12.912;2023-12-20T09:07:00;100451.19;;;7.92;81.48
57668;BME280;43499;52.366;12.912;2023-12-20T09:11:26;100470.78;;;7.07;86.37
57668;BME280;43499;52.366;12.912;2023-12-20T09:13:00;100411.97;;;6.83;84.82
57668;BME280;43499;52.366;12.912;2023-12-20T09:14:21;100439.94;;;6.84;85.53
57668;BME280;43499;52.366;12.912;2023-12-20T09:17:53;100486.09;;;7.43;85.25
57668;BME280;43499;52.366;12.912;2023-12-20T09:19:03;100379.91;;;6.94;84.70
57668;BME280;43499;52.366;12.912;2023-12-20T09:20:34;100424.94;;;7.40;84.01
57668;BME280;43499;52.366;12.912;2023-12-20T09:24:35;100417.41;;;7.24;83.57
57668;BME280;43499;52.366;12.912;2023-12-20T09:29:04;100477.16;;;7.99;81.92
57668;BME280;43499;52.366;12.912;2023-12-20T09:30:41;100391.94;;;7.32;81.85
57668;BME280;43499;52.366;12.912;2023-12-20T09:32:14;100395.94;;;7.18;82.63
57668;BME280;43499;52.366;12.912;2023-12-20T09:36:53;100401.56;;;7.23;82.33
57668;BME280;43499;52.366;12.912;2023-12-20T09:38:59;100364.91;;;6.73;84.12
57668;BME280;43499;52.366;12.912;2023-12-20T09:40:38;100377.44;;;6.47;84.01
57668;BME280;43499;52.366;12.912;2023-12-20T09:44:00;100395.09;;;6.99;83.16
57668;BME280;43499;52.366;12.912;2023-12-20T09:45:32;100465.75;;;7.49;82.53
57668;BME280;43499;52.366;12.912;2023-12-20T09:48:11;100366.88;;;7.05;82.73
57668;BME280;43499;52.366;12.912;2023-12-20T09:49:13;100421.59;;;7.62;81.01
57668;BME280;43499;52.366;12.912;2023-12-20T09:50:18;100386.09;;;7.45;81.18
57668;BME280;43499;52.366;12.912;2023-12-20T09:51:25;100431.44;;;7.96;79.40
57668;BME280;43499;52.366;12.912;2023-12-20T09:52:55;100343.25;;;7.84;77.91
57668;BME280;43499;52.366;12.912;2023-12-20T09:54:06;100384.25;;;8.89;75.24
57668;BME280;43499;52.366;12.912;2023-12-20T09:55:08;100435.72;;;9.41;74.24